sensor_id;sensor_type;location;lat;lon;timestamp;P1;durP1;ratioP1;P2;durP2;ratioP2
69485;SDS011;56677;51.710;5.366;2023-02-15T06:47:14;7.28;;;4.18;;
69485;SDS011;56677;51.710;5.366;2023-02-15T06:49:40;7.03;;;4.20;;
69485;SDS011;56677;51.710;5.366;2023-02-15T06:52:05;9.00;;;4.72;;
69485;SDS011;56677;51.710;5.366;2023-02-15T06:54:30;6.03;;;4.00;;
69485;SDS011;56677;51.710;5.366;2023-02-15T06:56:55;7.65;;;4.10;;
69485;SDS011;56677;51.710;5.366;2023-02-15T06:59:20;6.93;;;4.00;;
69485;SDS011;56677;51.710;5.366;2023-02-15T07:01:45;6.60;;;4.30;;
69485;SDS011;56677;51.710;5.366;2023-02-15T07:04:11;8.48;;;4.63;;
69485;SDS011;56677;51.710;5.366;2023-02-15T07:06:36;6.93;;;4.32;;
69485;SDS011;56677;51.710;5.366;2023-02-15T07:09:01;8.53;;;4.13;;
69485;SDS011;56677;51.710;5.366;2023-02-15T07:11:26;7.43;;;4.33;;
69485;SDS011;56677;51.710;5.366;2023-02-15T07:13:52;7.07;;;4.07;;
69485;SDS011;56677;51.710;5.366;2023-02-15T07:16:17;6.40;;;3.87;;
69485;SDS011;56677;51.710;5.366;2023-02-15T07:18:42;7.90;;;4.13;;
69485;SDS011;56677;51.710;5.366;2023-02-15T07:21:07;7.55;;;4.18;;
69485;SDS011;56677;51.710;5.366;2023-02-15T07:23:36;7.50;;;4.10;;
69485;SDS011;56677;51.710;5.366;2023-02-15T07:26:02;11.20;;;4.70;;
69485;SDS011;56677;51.710;5.366;2023-02-15T07:28:27;11.63;;;5.60;;
69485;SDS011;56677;51.710;5.366;2023-02-15T07:30:52;11.47;;;5.00;;
69485;SDS011;56677;51.710;5.366;2023-02-15T07:33:17;10.13;;;5.40;;
69485;SDS011;56677;51.710;5.366;2023-02-15T07:35:46;8.27;;;5.65;;
69485;SDS011;56677;51.710;5.366;2023-02-15T07:38:11;9.43;;;5.63;;
69485;SDS011;56677;51.710;5.366;2023-02-15T07:40:36;9.45;;;5.47;;
69485;SDS011;56677;51.710;5.366;2023-02-15T07:43:01;9.87;;;5.70;;
69485;SDS011;56677;51.710;5.366;2023-02-15T07:45:26;8.60;;;4.80;;
69485;SDS011;56677;51.710;5.366;2023-02-15T07:47:51;9.20;;;4.97;;
69485;SDS011;56677;51.710;5.366;2023-02-15T07:50:16;8.43;;;5.15;;
69485;SDS011;56677;51.710;5.366;2023-02-15T07:52:42;9.10;;;5.32;;
69485;SDS011;56677;51.710;5.366;2023-02-15T07:55:07;9.43;;;5.00;;
69485;SDS011;56677;51.710;5.366;2023-02-15T07:57:32;9.80;;;5.10;;
69485;SDS011;56677;51.710;5.366;2023-02-15T07:59:57;8.70;;;5.38;;
69485;SDS011;56677;51.710;5.366;2023-02-15T08:02:22;7.72;;;5.10;;
69485;SDS011;56677;51.710;5.366;2023-02-15T08:04:47;7.38;;;4.38;;
69485;SDS011;56677;51.710;5.366;2023-02-15T08:07:12;7.07;;;4.73;;
69485;SDS011;56677;51.710;5.366;2023-02-15T08:09:38;7.35;;;4.45;;
69485;SDS011;56677;51.710;5.366;2023-02-15T08:12:03;7.73;;;4.20;;
69485;SDS011;56677;51.710;5.366;2023-02-15T08:14:28;8.17;;;4.10;;
69485;SDS011;56677;51.710;5.366;2023-02-15T08:16:54;10.48;;;4.90;;
69485;SDS011;56677;51.710;5.366;2023-02-15T08:19:20;7.57;;;4.20;;
69485;SDS011;56677;51.710;5.366;2023-02-15T08:21:46;7.72;;;4.72;;
69485;SDS011;56677;51.710;5.366;2023-02-15T08:24:12;8.10;;;4.53;;
69485;SDS011;56677;51.710;5.366;2023-02-15T08:26:38;7.88;;;4.57;;
69485;SDS011;56677;51.710;5.366;2023-02-15T08:29:03;10.00;;;4.50;;
69485;SDS011;56677;51.710;5.366;2023-02-15T08:31:29;7.57;;;4.63;;
69485;SDS011;56677;51.710;5.366;2023-02-15T08:33:55;7.30;;;4.17;;
69485;SDS011;56677;51.710;5.366;2023-02-15T08:36:21;9.17;;;4.93;;
69485;SDS011;56677;51.710;5.366;2023-02-15T08:38:46;6.25;;;4.45;;
69485;SDS011;56677;51.710;5.366;2023-02-15T08:43:40;8.80;;;4.57;;
69485;SDS011;56677;51.710;5.366;2023-02-15T08:46:06;8.27;;;4.53;;
69485;SDS011;56677;51.710;5.366;2023-02-15T08:48:32;6.90;;;4.50;;
69485;SDS011;56677;51.710;5.366;2023-02-15T08:50:57;7.03;;;4.43;;
69485;SDS011;56677;51.710;5.366;2023-02-15T08:53:22;8.00;;;4.63;;
69485;SDS011;56677;51.710;5.366;2023-02-15T08:55:54;7.03;;;4.78;;
69485;SDS011;56677;51.710;5.366;2023-02-15T08:58:19;6.70;;;4.40;;
69485;SDS011;56677;51.710;5.366;2023-02-15T09:00:44;6.60;;;4.32;;
69485;SDS011;56677;51.710;5.366;2023-02-15T09:03:09;7.38;;;4.68;;
69485;SDS011;56677;51.710;5.366;2023-02-15T09:05:34;7.85;;;4.45;;
69485;SDS011;56677;51.710;5.366;2023-02-15T09:07:59;7.63;;;4.43;;
69485;SDS011;56677;51.710;5.366;2023-02-15T09:10:25;7.90;;;4.27;;
69485;SDS011;56677;51.710;5.366;2023-02-15T09:12:50;7.67;;;3.90;;
69485;SDS011;56677;51.710;5.366;2023-02-15T09:15:15;8.13;;;4.43;;
69485;SDS011;56677;51.710;5.366;2023-02-15T09:17:40;7.45;;;4.43;;
69485;SDS011;56677;51.710;5.366;2023-02-15T09:20:05;7.05;;;4.60;;
69485;SDS011;56677;51.710;5.366;2023-02-15T09:22:30;7.80;;;4.57;;
69485;SDS011;56677;51.710;5.366;2023-02-15T09:24:56;7.30;;;4.38;;
69485;SDS011;56677;51.710;5.366;2023-02-15T09:27:21;7.25;;;4.50;;
69485;SDS011;56677;51.710;5.366;2023-02-15T09:29:46;6.75;;;4.20;;
69485;SDS011;56677;51.710;5.366;2023-02-15T09:32:13;7.55;;;4.55;;
69485;SDS011;56677;51.710;5.366;2023-02-15T09:34:38;7.32;;;4.22;;
69485;SDS011;56677;51.710;5.366;2023-02-15T09:37:04;7.82;;;4.38;;
69485;SDS011;56677;51.710;5.366;2023-02-15T09:39:29;6.43;;;4.13;;
69485;SDS011;56677;51.710;5.366;2023-02-15T09:41:59;7.97;;;4.30;;
69485;SDS011;56677;51.710;5.366;2023-02-15T10:11:17;6.67;;;4.47;;
69485;SDS011;56677;51.710;5.366;2023-02-15T10:13:50;8.73;;;4.55;;
69485;SDS011;56677;51.710;5.366;2023-02-15T10:18:55;8.77;;;4.45;;
69485;SDS011;56677;51.710;5.366;2023-02-15T10:24:15;7.17;;;4.80;;
69485;SDS011;56677;51.710;5.366;2023-02-15T10:26:43;7.13;;;4.35;;
69485;SDS011;56677;51.710;5.366;2023-02-15T10:29:09;6.85;;;4.20;;
69485;SDS011;56677;51.710;5.366;2023-02-15T10:31:51;6.70;;;4.25;;
69485;SDS011;56677;51.710;5.366;2023-02-15T10:42:03;7.25;;;4.25;;
69485;SDS011;56677;51.710;5.366;2023-02-15T10:47:22;7.35;;;4.13;;
69485;SDS011;56677;51.710;5.366;2023-02-15T10:50:33;7.07;;;4.13;;
69485;SDS011;56677;51.710;5.366;2023-02-15T10:52:46;6.60;;;4.05;;
69485;SDS011;56677;51.710;5.366;2023-02-15T10:55:18;6.50;;;3.83;;
69485;SDS011;56677;51.710;5.366;2023-02-15T11:00:38;6.47;;;3.97;;
69485;SDS011;56677;51.710;5.366;2023-02-15T11:08:18;7.82;;;3.95;;
69485;SDS011;56677;51.710;5.366;2023-02-15T11:10:45;6.73;;;3.87;;
69485;SDS011;56677;51.710;5.366;2023-02-15T11:13:16;7.57;;;4.13;;
69485;SDS011;56677;51.710;5.366;2023-02-15T11:23:24;6.38;;;3.90;;
69485;SDS011;56677;51.710;5.366;2023-02-15T11:25:56;6.85;;;4.15;;
69485;SDS011;56677;51.710;5.366;2023-02-15T11:28:27;7.43;;;4.03;;
69485;SDS011;56677;51.710;5.366;2023-02-15T11:30:55;6.75;;;4.07;;
69485;SDS011;56677;51.710;5.366;2023-02-15T11:33:22;6.80;;;4.10;;
69485;SDS011;56677;51.710;5.366;2023-02-15T11:38:31;5.93;;;4.10;;
69485;SDS011;56677;51.710;5.366;2023-02-15T11:40:57;6.75;;;4.15;;
69485;SDS011;56677;51.710;5.366;2023-02-15T11:45:49;6.05;;;3.83;;
69485;SDS011;56677;51.710;5.366;2023-02-15T11:48:14;6.20;;;3.93;;
69485;SDS011;56677;51.710;5.366;2023-02-15T11:50:40;5.97;;;3.87;;
69485;SDS011;56677;51.710;5.366;2023-02-15T11:53:11;6.13;;;3.58;;
69485;SDS011;56677;51.710;5.366;2023-02-15T11:55:37;6.30;;;4.07;;
69485;SDS011;56677;51.710;5.366;2023-02-15T11:58:09;7.20;;;4.00;;
69485;SDS011;56677;51.710;5.366;2023-02-15T12:00:41;6.18;;;4.10;;
69485;SDS011;56677;51.710;5.366;2023-02-15T12:03:22;6.28;;;4.00;;
69485;SDS011;56677;51.710;5.366;2023-02-15T12:05:50;7.07;;;4.13;;
69485;SDS011;56677;51.710;5.366;2023-02-15T12:08:17;5.75;;;3.40;;
69485;SDS011;56677;51.710;5.366;2023-02-15T12:13:15;6.63;;;4.05;;
69485;SDS011;56677;51.710;5.366;2023-02-15T12:15:42;6.22;;;3.70;;
69485;SDS011;56677;51.710;5.366;2023-02-15T12:18:31;5.40;;;3.57;;
69485;SDS011;56677;51.710;5.366;2023-02-15T12:20:59;6.25;;;4.10;;
69485;SDS011;56677;51.710;5.366;2023-02-15T12:23:24;8.10;;;4.15;;
69485;SDS011;56677;51.710;5.366;2023-02-15T12:25:53;7.18;;;3.97;;
69485;SDS011;56677;51.710;5.366;2023-02-15T12:28:22;8.25;;;4.03;;
69485;SDS011;56677;51.710;5.366;2023-02-15T12:30:48;5.63;;;3.80;;
69485;SDS011;56677;51.710;5.366;2023-02-15T12:33:23;6.43;;;3.78;;
69485;SDS011;56677;51.710;5.366;2023-02-15T12:35:54;6.37;;;3.70;;
69485;SDS011;56677;51.710;5.366;2023-02-15T12:38:21;5.78;;;3.78;;
69485;SDS011;56677;51.710;5.366;2023-02-15T12:43:49;5.88;;;3.35;;
69485;SDS011;56677;51.710;5.366;2023-02-15T12:46:27;6.75;;;4.03;;
69485;SDS011;56677;51.710;5.366;2023-02-15T12:49:05;7.17;;;3.80;;
69485;SDS011;56677;51.710;5.366;2023-02-15T12:51:31;5.47;;;3.57;;
69485;SDS011;56677;51.710;5.366;2023-02-15T12:53:56;6.63;;;3.90;;
69485;SDS011;56677;51.710;5.366;2023-02-15T12:56:25;7.72;;;4.18;;
69485;SDS011;56677;51.710;5.366;2023-02-15T12:58:51;6.65;;;4.30;;
69485;SDS011;56677;51.710;5.366;2023-02-15T13:01:28;6.50;;;3.92;;
69485;SDS011;56677;51.710;5.366;2023-02-15T13:04:06;6.22;;;4.00;;
69485;SDS011;56677;51.710;5.366;2023-02-15T13:06:37;6.20;;;3.57;;
69485;SDS011;56677;51.710;5.366;2023-02-15T13:11:42;10.10;;;5.88;;
69485;SDS011;56677;51.710;5.366;2023-02-15T13:14:21;13.25;;;6.05;;
69485;SDS011;56677;51.710;5.366;2023-02-15T13:16:50;8.93;;;4.55;;
69485;SDS011;56677;51.710;5.366;2023-02-15T13:19:18;16.00;;;7.33;;
69485;SDS011;56677;51.710;5.366;2023-02-15T13:21:46;13.95;;;6.20;;
69485;SDS011;56677;51.710;5.366;2023-02-15T13:24:15;9.50;;;5.85;;
69485;SDS011;56677;51.710;5.366;2023-02-15T13:26:43;14.13;;;6.45;;
69485;SDS011;56677;51.710;5.366;2023-02-15T13:29:21;10.85;;;6.15;;
69485;SDS011;56677;51.710;5.366;2023-02-15T13:31:47;10.77;;;6.43;;
69485;SDS011;56677;51.710;5.366;2023-02-15T13:34:17;13.43;;;6.50;;
69485;SDS011;56677;51.710;5.366;2023-02-15T13:36:50;11.90;;;6.05;;
69485;SDS011;56677;51.710;5.366;2023-02-15T13:39:22;9.77;;;6.00;;
69485;SDS011;56677;51.710;5.366;2023-02-15T13:44:19;9.43;;;5.50;;
69485;SDS011;56677;51.710;5.366;2023-02-15T13:54:36;11.23;;;5.82;;
69485;SDS011;56677;51.710;5.366;2023-02-15T13:59:52;9.37;;;5.20;;
69485;SDS011;56677;51.710;5.366;2023-02-15T14:15:42;7.73;;;4.57;;
69485;SDS011;56677;51.710;5.366;2023-02-15T14:23:24;7.70;;;4.80;;
69485;SDS011;56677;51.710;5.366;2023-02-15T14:25:55;8.65;;;4.55;;
69485;SDS011;56677;51.710;5.366;2023-02-15T14:30:48;8.38;;;5.25;;
69485;SDS011;56677;51.710;5.366;2023-02-15T14:35:39;8.55;;;5.47;;
69485;SDS011;56677;51.710;5.366;2023-02-15T14:40:47;8.00;;;4.47;;
69485;SDS011;56677;51.710;5.366;2023-02-15T14:43:19;8.30;;;5.03;;
69485;SDS011;56677;51.710;5.366;2023-02-15T14:46:02;8.10;;;4.68;;
69485;SDS011;56677;51.710;5.366;2023-02-15T14:48:32;7.35;;;4.60;;
69485;SDS011;56677;51.710;5.366;2023-02-15T14:50:58;7.10;;;4.53;;
69485;SDS011;56677;51.710;5.366;2023-02-15T15:01:17;6.93;;;4.03;;
69485;SDS011;56677;51.710;5.366;2023-02-15T15:03:50;7.95;;;5.28;;
69485;SDS011;56677;51.710;5.366;2023-02-15T15:06:24;6.95;;;4.22;;
69485;SDS011;56677;51.710;5.366;2023-02-15T15:08:49;8.67;;;4.60;;
69485;SDS011;56677;51.710;5.366;2023-02-15T15:13:58;12.05;;;5.32;;
69485;SDS011;56677;51.710;5.366;2023-02-15T15:18:52;7.13;;;4.72;;
69485;SDS011;56677;51.710;5.366;2023-02-15T15:24:01;9.88;;;4.65;;
69485;SDS011;56677;51.710;5.366;2023-02-15T15:26:27;8.35;;;4.90;;
69485;SDS011;56677;51.710;5.366;2023-02-15T15:28:53;7.27;;;4.33;;
69485;SDS011;56677;51.710;5.366;2023-02-15T15:31:19;8.75;;;4.93;;
69485;SDS011;56677;51.710;5.366;2023-02-15T15:36:35;10.82;;;4.65;;
69485;SDS011;56677;51.710;5.366;2023-02-15T15:39:15;7.97;;;4.25;;
69485;SDS011;56677;51.710;5.366;2023-02-15T15:41:52;8.55;;;5.10;;
69485;SDS011;56677;51.710;5.366;2023-02-15T15:46:52;8.73;;;4.37;;
69485;SDS011;56677;51.710;5.366;2023-02-15T15:49:23;8.10;;;4.65;;
69485;SDS011;56677;51.710;5.366;2023-02-15T15:51:49;8.10;;;4.72;;
69485;SDS011;56677;51.710;5.366;2023-02-15T15:54:16;7.80;;;4.45;;
69485;SDS011;56677;51.710;5.366;2023-02-15T15:56:43;8.40;;;5.10;;
69485;SDS011;56677;51.710;5.366;2023-02-15T15:59:12;7.90;;;4.43;;
69485;SDS011;56677;51.710;5.366;2023-02-15T16:01:39;7.65;;;4.18;;
69485;SDS011;56677;51.710;5.366;2023-02-15T16:04:10;12.25;;;4.50;;
69485;SDS011;56677;51.710;5.366;2023-02-15T16:06:36;10.57;;;4.38;;
69485;SDS011;56677;51.710;5.366;2023-02-15T16:09:22;7.68;;;4.38;;
69485;SDS011;56677;51.710;5.366;2023-02-15T16:11:48;7.27;;;4.20;;
69485;SDS011;56677;51.710;5.366;2023-02-15T16:14:16;7.93;;;4.20;;
69485;SDS011;56677;51.710;5.366;2023-02-15T16:16:45;7.53;;;4.57;;
69485;SDS011;56677;51.710;5.366;2023-02-15T16:19:18;7.60;;;4.38;;
69485;SDS011;56677;51.710;5.366;2023-02-15T16:21:43;8.88;;;4.65;;
69485;SDS011;56677;51.710;5.366;2023-02-15T16:29:27;7.22;;;4.88;;
69485;SDS011;56677;51.710;5.366;2023-02-15T16:34:36;6.65;;;4.25;;
69485;SDS011;56677;51.710;5.366;2023-02-15T16:37:24;7.55;;;4.93;;
69485;SDS011;56677;51.710;5.366;2023-02-15T16:39:47;9.23;;;4.63;;
69485;SDS011;56677;51.710;5.366;2023-02-15T16:42:12;10.10;;;4.70;;
69485;SDS011;56677;51.710;5.366;2023-02-15T16:44:39;7.38;;;4.35;;
69485;SDS011;56677;51.710;5.366;2023-02-15T16:47:04;7.93;;;4.38;;
69485;SDS011;56677;51.710;5.366;2023-02-15T16:49:31;8.30;;;4.78;;
69485;SDS011;56677;51.710;5.366;2023-02-15T16:52:04;7.53;;;4.60;;
69485;SDS011;56677;51.710;5.366;2023-02-15T16:54:29;7.65;;;4.32;;
69485;SDS011;56677;51.710;5.366;2023-02-15T16:56:55;8.48;;;4.97;;
69485;SDS011;56677;51.710;5.366;2023-02-15T16:59:37;9.00;;;4.90;;
69485;SDS011;56677;51.710;5.366;2023-02-15T17:02:05;8.48;;;5.05;;
69485;SDS011;56677;51.710;5.366;2023-02-15T17:04:30;7.93;;;5.13;;
69485;SDS011;56677;51.710;5.366;2023-02-15T17:09:48;8.70;;;5.13;;
69485;SDS011;56677;51.710;5.366;2023-02-15T17:12:14;11.35;;;5.18;;
69485;SDS011;56677;51.710;5.366;2023-02-15T17:14:58;10.03;;;5.10;;
69485;SDS011;56677;51.710;5.366;2023-02-15T17:17:23;7.45;;;4.53;;
69485;SDS011;56677;51.710;5.366;2023-02-15T17:19:52;10.73;;;4.97;;
69485;SDS011;56677;51.710;5.366;2023-02-15T17:22:20;8.48;;;5.28;;
69485;SDS011;56677;51.710;5.366;2023-02-15T17:24:46;9.05;;;5.00;;
69485;SDS011;56677;51.710;5.366;2023-02-15T17:27:19;9.00;;;5.03;;
69485;SDS011;56677;51.710;5.366;2023-02-15T17:29:46;10.15;;;5.25;;
69485;SDS011;56677;51.710;5.366;2023-02-15T17:32:19;7.68;;;4.63;;
69485;SDS011;56677;51.710;5.366;2023-02-15T17:35:27;8.43;;;5.05;;
69485;SDS011;56677;51.710;5.366;2023-02-15T17:40:06;8.77;;;4.83;;
69485;SDS011;56677;51.710;5.366;2023-02-15T17:42:32;9.75;;;5.03;;
69485;SDS011;56677;51.710;5.366;2023-02-15T17:44:57;7.45;;;4.70;;
69485;SDS011;56677;51.710;5.366;2023-02-15T17:47:23;7.82;;;5.00;;
69485;SDS011;56677;51.710;5.366;2023-02-15T17:49:48;9.10;;;4.93;;
69485;SDS011;56677;51.710;5.366;2023-02-15T17:52:14;9.55;;;5.07;;
69485;SDS011;56677;51.710;5.366;2023-02-15T17:54:40;9.10;;;5.50;;
69485;SDS011;56677;51.710;5.366;2023-02-15T17:57:10;8.18;;;4.95;;
69485;SDS011;56677;51.710;5.366;2023-02-15T17:59:36;7.47;;;5.03;;
69485;SDS011;56677;51.710;5.366;2023-02-15T18:02:02;7.75;;;4.57;;
69485;SDS011;56677;51.710;5.366;2023-02-15T18:04:27;8.50;;;4.63;;
69485;SDS011;56677;51.710;5.366;2023-02-15T18:06:52;7.32;;;4.70;;
69485;SDS011;56677;51.710;5.366;2023-02-15T18:09:18;7.97;;;5.20;;
69485;SDS011;56677;51.710;5.366;2023-02-15T18:11:43;8.32;;;4.60;;
69485;SDS011;56677;51.710;5.366;2023-02-15T18:14:09;9.43;;;5.20;;
69485;SDS011;56677;51.710;5.366;2023-02-15T18:16:41;7.63;;;4.93;;
69485;SDS011;56677;51.710;5.366;2023-02-15T18:19:08;8.73;;;5.38;;
69485;SDS011;56677;51.710;5.366;2023-02-15T18:21:35;7.63;;;5.17;;
69485;SDS011;56677;51.710;5.366;2023-02-15T18:24:00;9.90;;;5.25;;
69485;SDS011;56677;51.710;5.366;2023-02-15T18:26:26;7.68;;;5.05;;
69485;SDS011;56677;51.710;5.366;2023-02-15T18:28:52;7.97;;;4.63;;
69485;SDS011;56677;51.710;5.366;2023-02-15T18:31:17;12.80;;;4.97;;
69485;SDS011;56677;51.710;5.366;2023-02-15T18:36:11;8.60;;;4.63;;
69485;SDS011;56677;51.710;5.366;2023-02-15T18:38:38;7.20;;;4.67;;
69485;SDS011;56677;51.710;5.366;2023-02-15T18:41:03;7.65;;;5.18;;
69485;SDS011;56677;51.710;5.366;2023-02-15T18:43:29;9.02;;;5.20;;
69485;SDS011;56677;51.710;5.366;2023-02-15T18:45:54;7.60;;;4.53;;
69485;SDS011;56677;51.710;5.366;2023-02-15T18:48:19;7.68;;;5.03;;
69485;SDS011;56677;51.710;5.366;2023-02-15T18:50:45;8.73;;;5.13;;
69485;SDS011;56677;51.710;5.366;2023-02-15T18:53:17;9.77;;;5.45;;
69485;SDS011;56677;51.710;5.366;2023-02-15T18:55:43;8.45;;;4.90;;
69485;SDS011;56677;51.710;5.366;2023-02-15T18:58:13;7.50;;;4.90;;
69485;SDS011;56677;51.710;5.366;2023-02-15T19:00:39;8.02;;;4.65;;
69485;SDS011;56677;51.710;5.366;2023-02-15T19:03:04;7.25;;;4.22;;
69485;SDS011;56677;51.710;5.366;2023-02-15T19:05:29;7.88;;;4.57;;
69485;SDS011;56677;51.710;5.366;2023-02-15T19:07:56;7.97;;;4.83;;
69485;SDS011;56677;51.710;5.366;2023-02-15T19:10:23;8.15;;;4.97;;
69485;SDS011;56677;51.710;5.366;2023-02-15T19:12:49;7.00;;;4.53;;
69485;SDS011;56677;51.710;5.366;2023-02-15T19:15:15;7.90;;;4.73;;
69485;SDS011;56677;51.710;5.366;2023-02-15T19:17:40;8.68;;;5.00;;
69485;SDS011;56677;51.710;5.366;2023-02-15T19:20:05;9.40;;;5.43;;
69485;SDS011;56677;51.710;5.366;2023-02-15T19:22:31;7.40;;;4.90;;
69485;SDS011;56677;51.710;5.366;2023-02-15T19:24:57;8.70;;;4.93;;
69485;SDS011;56677;51.710;5.366;2023-02-15T19:29:48;7.78;;;4.45;;
69485;SDS011;56677;51.710;5.366;2023-02-15T19:32:13;9.05;;;5.25;;
69485;SDS011;56677;51.710;5.366;2023-02-15T19:34:38;8.73;;;5.45;;
69485;SDS011;56677;51.710;5.366;2023-02-15T19:37:03;8.47;;;5.00;;
69485;SDS011;56677;51.710;5.366;2023-02-15T19:39:32;9.43;;;5.18;;
69485;SDS011;56677;51.710;5.366;2023-02-15T19:41:59;6.63;;;4.53;;
69485;SDS011;56677;51.710;5.366;2023-02-15T19:44:24;7.83;;;5.00;;
69485;SDS011;56677;51.710;5.366;2023-02-15T19:46:49;10.20;;;5.15;;
69485;SDS011;56677;51.710;5.366;2023-02-15T19:49:14;8.50;;;4.65;;
69485;SDS011;56677;51.710;5.366;2023-02-15T19:51:39;11.02;;;5.15;;
69485;SDS011;56677;51.710;5.366;2023-02-15T19:54:15;10.47;;;4.70;;
69485;SDS011;56677;51.710;5.366;2023-02-15T19:56:42;8.43;;;4.90;;
69485;SDS011;56677;51.710;5.366;2023-02-15T19:59:29;9.30;;;5.10;;
69485;SDS011;56677;51.710;5.366;2023-02-15T20:01:53;7.28;;;4.60;;
69485;SDS011;56677;51.710;5.366;2023-02-15T20:04:18;7.97;;;5.03;;
69485;SDS011;56677;51.710;5.366;2023-02-15T20:06:44;7.67;;;4.60;;
69485;SDS011;56677;51.710;5.366;2023-02-15T20:09:15;8.18;;;5.53;;
69485;SDS011;56677;51.710;5.366;2023-02-15T20:11:41;8.63;;;4.63;;
69485;SDS011;56677;51.710;5.366;2023-02-15T20:14:10;7.75;;;4.55;;
69485;SDS011;56677;51.710;5.366;2023-02-15T20:16:36;8.68;;;4.68;;
69485;SDS011;56677;51.710;5.366;2023-02-15T20:19:01;9.37;;;4.90;;
69485;SDS011;56677;51.710;5.366;2023-02-15T20:21:26;7.72;;;4.40;;
69485;SDS011;56677;51.710;5.366;2023-02-15T20:23:51;8.65;;;4.35;;
69485;SDS011;56677;51.710;5.366;2023-02-15T20:26:17;8.23;;;5.30;;
69485;SDS011;56677;51.710;5.366;2023-02-15T20:28:43;6.90;;;4.63;;
69485;SDS011;56677;51.710;5.366;2023-02-15T20:31:13;8.43;;;4.70;;
69485;SDS011;56677;51.710;5.366;2023-02-15T20:33:38;8.57;;;4.22;;
69485;SDS011;56677;51.710;5.366;2023-02-15T20:36:03;8.20;;;4.43;;
69485;SDS011;56677;51.710;5.366;2023-02-15T20:38:29;8.90;;;4.60;;
69485;SDS011;56677;51.710;5.366;2023-02-15T20:40:55;9.00;;;4.35;;
69485;SDS011;56677;51.710;5.366;2023-02-15T20:43:21;8.07;;;4.30;;
69485;SDS011;56677;51.710;5.366;2023-02-15T20:45:46;8.52;;;4.88;;
69485;SDS011;56677;51.710;5.366;2023-02-15T20:48:11;9.88;;;4.85;;
69485;SDS011;56677;51.710;5.366;2023-02-15T20:50:36;7.60;;;4.77;;
69485;SDS011;56677;51.710;5.366;2023-02-15T20:53:01;9.10;;;4.60;;
69485;SDS011;56677;51.710;5.366;2023-02-15T20:55:27;9.68;;;4.60;;
69485;SDS011;56677;51.710;5.366;2023-02-15T20:57:53;9.48;;;5.15;;
69485;SDS011;56677;51.710;5.366;2023-02-15T21:00:28;8.17;;;5.10;;
69485;SDS011;56677;51.710;5.366;2023-02-15T21:02:56;9.90;;;4.78;;
69485;SDS011;56677;51.710;5.366;2023-02-15T21:05:23;8.05;;;4.68;;
69485;SDS011;56677;51.710;5.366;2023-02-15T21:07:49;9.38;;;5.50;;
69485;SDS011;56677;51.710;5.366;2023-02-15T21:10:15;7.73;;;5.10;;
69485;SDS011;56677;51.710;5.366;2023-02-15T21:12:40;8.75;;;4.32;;
69485;SDS011;56677;51.710;5.366;2023-02-15T21:15:27;7.57;;;4.60;;
69485;SDS011;56677;51.710;5.366;2023-02-15T21:17:51;10.02;;;4.90;;
69485;SDS011;56677;51.710;5.366;2023-02-15T21:20:16;8.60;;;5.13;;
69485;SDS011;56677;51.710;5.366;2023-02-15T21:22:41;8.20;;;5.00;;
69485;SDS011;56677;51.710;5.366;2023-02-15T21:25:09;7.73;;;4.90;;
69485;SDS011;56677;51.710;5.366;2023-02-15T21:27:37;8.90;;;5.15;;
69485;SDS011;56677;51.710;5.366;2023-02-15T21:30:02;7.20;;;4.18;;
69485;SDS011;56677;51.710;5.366;2023-02-15T21:32:27;7.30;;;4.50;;
69485;SDS011;56677;51.710;5.366;2023-02-15T21:34:52;8.38;;;4.60;;
69485;SDS011;56677;51.710;5.366;2023-02-15T21:37:23;8.67;;;5.03;;
69485;SDS011;56677;51.710;5.366;2023-02-15T21:39:50;7.78;;;4.65;;
69485;SDS011;56677;51.710;5.366;2023-02-15T21:42:15;7.88;;;4.78;;
69485;SDS011;56677;51.710;5.366;2023-02-15T21:44:40;8.85;;;5.65;;
69485;SDS011;56677;51.710;5.366;2023-02-15T21:47:07;9.75;;;5.32;;
69485;SDS011;56677;51.710;5.366;2023-02-15T21:49:40;8.88;;;5.47;;
69485;SDS011;56677;51.710;5.366;2023-02-15T21:52:07;8.02;;;4.75;;
69485;SDS011;56677;51.710;5.366;2023-02-15T21:54:32;7.03;;;4.60;;
69485;SDS011;56677;51.710;5.366;2023-02-15T21:56:57;8.93;;;4.32;;
69485;SDS011;56677;51.710;5.366;2023-02-15T21:59:24;8.35;;;5.10;;
69485;SDS011;56677;51.710;5.366;2023-02-15T22:01:50;8.55;;;4.72;;
69485;SDS011;56677;51.710;5.366;2023-02-15T22:04:19;8.23;;;5.10;;
69485;SDS011;56677;51.710;5.366;2023-02-15T22:06:46;8.07;;;4.85;;
69485;SDS011;56677;51.710;5.366;2023-02-15T22:09:18;7.82;;;4.85;;
69485;SDS011;56677;51.710;5.366;2023-02-15T22:11:44;7.75;;;5.07;;
69485;SDS011;56677;51.710;5.366;2023-02-15T22:14:19;7.90;;;5.23;;
69485;SDS011;56677;51.710;5.366;2023-02-15T22:16:49;8.40;;;5.63;;
69485;SDS011;56677;51.710;5.366;2023-02-15T22:19:14;8.10;;;5.50;;
69485;SDS011;56677;51.710;5.366;2023-02-15T22:21:39;7.80;;;4.83;;
69485;SDS011;56677;51.710;5.366;2023-02-15T22:24:04;9.73;;;5.03;;
69485;SDS011;56677;51.710;5.366;2023-02-15T22:26:30;8.27;;;4.70;;
69485;SDS011;56677;51.710;5.366;2023-02-15T22:28:55;7.63;;;5.30;;
69485;SDS011;56677;51.710;5.366;2023-02-15T22:31:21;8.43;;;4.93;;
69485;SDS011;56677;51.710;5.366;2023-02-15T22:33:46;7.60;;;4.40;;
69485;SDS011;56677;51.710;5.366;2023-02-15T22:36:18;7.10;;;4.57;;
69485;SDS011;56677;51.710;5.366;2023-02-15T22:38:45;7.50;;;5.15;;
69485;SDS011;56677;51.710;5.366;2023-02-15T22:41:10;9.05;;;5.00;;
69485;SDS011;56677;51.710;5.366;2023-02-15T22:43:37;8.13;;;5.07;;
69485;SDS011;56677;51.710;5.366;2023-02-15T22:46:04;8.07;;;5.05;;
